createdAt,value
2022-08-28T00:00:45.147Z,100693.31
2022-08-28T00:03:15.602Z,100687.63
2022-08-28T00:05:46.355Z,100684.06
2022-08-28T00:08:17.389Z,100681.03
2022-08-28T00:10:46.840Z,100682.06
2022-08-28T00:13:19.993Z,100682.84
2022-08-28T00:15:51.710Z,100670.13
2022-08-28T00:18:20.021Z,100680.78
2022-08-28T00:20:49.999Z,100672.84
2022-08-28T00:23:18.402Z,100682.06
2022-08-28T00:25:47.620Z,100674.19
2022-08-28T00:28:23.920Z,100672.50
2022-08-28T00:30:57.538Z,100677.63
2022-08-28T00:33:35.923Z,100671.56
2022-08-28T00:36:05.976Z,100677.28
2022-08-28T00:38:34.167Z,100679.44
2022-08-28T00:41:05.048Z,100670.41
2022-08-28T00:43:38.749Z,100676.13
2022-08-28T00:46:18.730Z,100672.78
2022-08-28T00:48:48.278Z,100670.69
2022-08-28T00:51:37.403Z,100675.34
2022-08-28T00:54:08.888Z,100666.22
2022-08-28T00:56:40.059Z,100672.56
2022-08-28T00:59:18.850Z,100666.69
2022-08-28T01:01:48.771Z,100665.59
2022-08-28T01:04:20.373Z,100669.94
2022-08-28T01:06:54.085Z,100667.03
2022-08-28T01:09:27.160Z,100670.09
2022-08-28T01:12:02.149Z,100664.53
2022-08-28T01:14:36.594Z,100666.63
2022-08-28T01:17:07.318Z,100668.72
2022-08-28T01:19:41.807Z,100663.22
2022-08-28T01:22:49.850Z,100665.72
2022-08-28T01:25:21.615Z,100660.97
2022-08-28T01:27:52.548Z,100654.38
2022-08-28T01:30:28.705Z,100657.75
2022-08-28T01:32:58.873Z,100660.97
2022-08-28T01:35:40.441Z,100647.50
2022-08-28T01:38:08.847Z,100666.16
2022-08-28T01:40:43.020Z,100661.63
2022-08-28T01:43:21.723Z,100659.34
2022-08-28T01:45:56.209Z,100662.28
2022-08-28T01:48:26.062Z,100663.22
2022-08-28T01:50:56.235Z,100665.47
2022-08-28T01:53:32.503Z,100665.00
2022-08-28T01:56:09.848Z,100663.84
2022-08-28T01:58:41.976Z,100661.00
2022-08-28T02:01:16.147Z,100658.50
2022-08-28T02:03:45.415Z,100657.13
2022-08-28T02:06:16.966Z,100660.38
2022-08-28T02:08:46.980Z,100657.06
2022-08-28T02:11:16.614Z,100652.16
2022-08-28T02:13:44.964Z,100652.13
2022-08-28T02:16:14.403Z,100649.66
2022-08-28T02:18:42.887Z,100655.44
2022-08-28T02:21:13.075Z,100665.81
2022-08-28T02:23:43.665Z,100665.03
2022-08-28T02:26:16.554Z,100664.69
2022-08-28T02:28:45.871Z,100664.03
2022-08-28T02:31:14.657Z,100665.94
2022-08-28T02:33:45.110Z,100671.41
2022-08-28T02:36:15.681Z,100672.78
2022-08-28T02:38:46.070Z,100677.66
2022-08-28T02:41:14.280Z,100677.47
2022-08-28T02:43:43.010Z,100675.63
2022-08-28T02:46:12.107Z,100678.91
2022-08-28T02:48:40.732Z,100689.84
2022-08-28T02:51:13.424Z,100682.50
2022-08-28T02:53:43.174Z,100687.19
2022-08-28T02:56:12.059Z,100682.44
2022-08-28T02:58:41.231Z,100686.63
2022-08-28T03:01:11.525Z,100688.25
2022-08-28T03:03:41.608Z,100683.09
2022-08-28T03:06:12.823Z,100691.34
2022-08-28T03:08:44.883Z,100682.53
2022-08-28T03:11:13.938Z,100689.00
2022-08-28T03:13:42.647Z,100694.13
2022-08-28T03:16:14.230Z,100690.16
2022-08-28T03:18:42.933Z,100691.09
2022-08-28T03:21:12.762Z,100695.47
2022-08-28T03:23:40.912Z,100691.16
2022-08-28T03:26:16.770Z,100689.16
2022-08-28T03:28:51.174Z,100688.81
2022-08-28T03:31:24.103Z,100692.63
2022-08-28T03:33:53.671Z,100687.69
2022-08-28T03:36:28.905Z,100690.94
2022-08-28T03:39:00.829Z,100696.19
2022-08-28T03:41:31.602Z,100696.19
2022-08-28T03:44:04.059Z,100692.53
2022-08-28T03:46:34.817Z,100700.50
2022-08-28T03:49:04.425Z,100699.66
2022-08-28T03:51:34.685Z,100698.06
2022-08-28T03:54:04.836Z,100695.53
2022-08-28T03:56:34.074Z,100704.25
2022-08-28T03:59:05.999Z,100690.59
2022-08-28T04:01:35.208Z,100694.09
2022-08-28T04:04:04.751Z,100698.03
2022-08-28T04:06:33.049Z,100699.69
2022-08-28T04:09:05.793Z,100707.59
2022-08-28T04:11:45.825Z,100710.00
2022-08-28T04:14:14.659Z,100705.13
2022-08-28T04:16:43.332Z,100710.38
2022-08-28T04:19:12.546Z,100701.94
2022-08-28T04:21:40.907Z,100705.31
2022-08-28T04:24:10.430Z,100703.97
2022-08-28T04:26:55.723Z,100703.97
2022-08-28T04:29:24.017Z,100704.13
2022-08-28T04:31:53.239Z,100700.53
2022-08-28T04:34:24.407Z,100713.56
2022-08-28T04:36:55.914Z,100705.31
2022-08-28T04:39:24.087Z,100700.38
2022-08-28T04:41:55.011Z,100697.06
2022-08-28T04:44:23.543Z,100705.88
2022-08-28T04:46:54.907Z,100704.25
2022-08-28T04:49:29.042Z,100706.97
2022-08-28T04:51:58.973Z,100699.81
2022-08-28T04:54:29.161Z,100704.47
2022-08-28T04:57:00.003Z,100711.91
2022-08-28T04:59:35.669Z,100714.66
2022-08-28T05:02:12.198Z,100712.41
2022-08-28T05:04:40.361Z,100712.66
2022-08-28T05:07:09.566Z,100719.59
2022-08-28T05:09:37.325Z,100714.69
2022-08-28T05:12:06.219Z,100710.25
2022-08-28T05:14:37.206Z,100713.84
2022-08-28T05:17:07.807Z,100712.47
2022-08-28T05:19:44.459Z,100714.41
2022-08-28T05:22:12.903Z,100717.44
2022-08-28T05:24:42.190Z,100714.66
2022-08-28T05:27:10.977Z,100726.78
2022-08-28T05:29:40.059Z,100719.38
2022-08-28T05:32:08.253Z,100717.41
2022-08-28T05:34:37.043Z,100727.31
2022-08-28T05:37:09.100Z,100731.97
2022-08-28T05:39:39.472Z,100726.25
2022-08-28T05:42:08.725Z,100727.31
2022-08-28T05:44:41.594Z,100727.28
2022-08-28T05:47:13.843Z,100729.44
2022-08-28T05:49:43.235Z,100733.28
2022-08-28T05:52:22.551Z,100730.25
2022-08-28T05:54:56.514Z,100733.81
2022-08-28T05:57:25.829Z,100734.38
2022-08-28T05:59:56.916Z,100727.22
2022-08-28T06:02:30.589Z,100732.16
2022-08-28T06:05:00.028Z,100735.69
2022-08-28T06:07:29.001Z,100727.66
2022-08-28T06:09:58.207Z,100737.53
2022-08-28T06:12:30.546Z,100741.94
2022-08-28T06:15:01.085Z,100734.19
2022-08-28T06:17:32.571Z,100748.78
2022-08-28T06:20:01.386Z,100735.81
2022-08-28T06:22:31.200Z,100734.16
2022-08-28T06:25:00.194Z,100741.59
2022-08-28T06:27:31.578Z,100742.91
2022-08-28T06:30:04.557Z,100748.34
2022-08-28T06:32:33.780Z,100742.81
2022-08-28T06:35:02.012Z,100738.38
2022-08-28T06:37:31.571Z,100743.81
2022-08-28T06:40:03.848Z,100746.75
2022-08-28T06:42:32.060Z,100746.34
2022-08-28T06:45:01.368Z,100746.34
2022-08-28T06:47:30.101Z,100749.94
2022-08-28T06:49:59.275Z,100744.13
2022-08-28T06:52:28.491Z,100738.06
2022-08-28T06:54:58.411Z,100734.59
2022-08-28T06:57:27.782Z,100749.38
2022-08-28T06:59:58.073Z,100739.22
2022-08-28T07:02:28.201Z,100752.13
2022-08-28T07:04:58.095Z,100745.13
2022-08-28T07:07:31.530Z,100748.94
2022-08-28T07:10:01.969Z,100741.66
2022-08-28T07:12:31.237Z,100741.53
2022-08-28T07:15:01.899Z,100742.31
2022-08-28T07:17:31.872Z,100736.56
2022-08-28T07:20:03.529Z,100746.09
2022-08-28T07:22:32.037Z,100738.84
2022-08-28T07:25:07.068Z,100736.47
2022-08-28T07:27:36.713Z,100732.28
2022-08-28T07:30:10.421Z,100732.66
2022-08-28T07:32:38.157Z,100732.09
2022-08-28T07:35:07.304Z,100735.03
2022-08-28T07:37:35.625Z,100732.91
2022-08-28T07:40:10.193Z,100731.19
2022-08-28T07:42:58.166Z,100735.31
2022-08-28T07:45:26.391Z,100729.06
2022-08-28T07:47:55.984Z,100734.19
2022-08-28T07:50:24.116Z,100732.28
2022-08-28T07:52:53.510Z,100736.66
2022-08-28T07:55:21.995Z,100738.91
2022-08-28T07:57:52.048Z,100739.34
2022-08-28T08:00:21.019Z,100737.03
2022-08-28T08:02:49.912Z,100740.34
2022-08-28T08:05:20.032Z,100736.03
2022-08-28T08:07:49.098Z,100728.75
2022-08-28T08:10:20.556Z,100717.78
2022-08-28T08:12:49.702Z,100725.84
2022-08-28T08:15:22.723Z,100719.34
2022-08-28T08:17:51.988Z,100722.38
2022-08-28T08:20:21.185Z,100720.09
2022-08-28T08:22:51.014Z,100717.69
2022-08-28T08:25:19.920Z,100711.00
2022-08-28T08:27:51.376Z,100707.81
2022-08-28T08:30:20.013Z,100700.81
2022-08-28T08:32:48.806Z,100698.94
2022-08-28T08:35:19.020Z,100708.72
2022-08-28T08:37:47.970Z,100704.47
2022-08-28T08:40:19.768Z,100703.41
2022-08-28T08:42:54.092Z,100700.84
2022-08-28T08:45:29.040Z,100696.09
2022-08-28T08:47:57.936Z,100706.78
2022-08-28T08:50:30.250Z,100698.44
2022-08-28T08:53:18.972Z,100694.72
2022-08-28T08:55:51.022Z,100700.44
2022-08-28T09:01:31.378Z,100695.03
2022-08-28T09:04:25.951Z,100706.31
2022-08-28T09:07:08.461Z,100693.22
2022-08-28T09:09:44.925Z,100697.03
2022-08-28T09:12:18.582Z,100695.53
2022-08-28T09:14:51.473Z,100700.91
2022-08-28T09:17:27.879Z,100686.53
2022-08-28T09:19:56.002Z,100687.09
2022-08-28T09:22:25.165Z,100695.78
2022-08-28T09:24:53.662Z,100680.53
2022-08-28T09:27:28.865Z,100685.59
2022-08-28T09:30:07.457Z,100692.31
2022-08-28T09:32:44.642Z,100686.59
2022-08-28T09:35:35.139Z,100678.94
2022-08-28T09:38:27.802Z,100684.97
2022-08-28T09:41:29.476Z,100673.59
2022-08-28T09:43:57.478Z,100682.28
2022-08-28T09:46:30.553Z,100673.91
2022-08-28T09:49:14.687Z,100674.09
2022-08-28T09:51:43.114Z,100674.63
2022-08-28T09:54:24.190Z,100672.56
2022-08-28T09:56:52.044Z,100675.97
2022-08-28T09:59:23.151Z,100670.66
2022-08-28T10:02:23.708Z,100659.59
2022-08-28T10:04:56.762Z,100669.94
2022-08-28T10:07:51.893Z,100659.44
2022-08-28T10:10:44.313Z,100664.16
2022-08-28T10:13:21.291Z,100676.56
2022-08-28T10:16:15.319Z,100670.69
2022-08-28T10:18:57.543Z,100671.41
2022-08-28T10:21:51.326Z,100675.56
2022-08-28T10:24:26.843Z,100674.44
2022-08-28T10:27:31.888Z,100668.53
2022-08-28T10:30:12.538Z,100666.81
2022-08-28T10:33:08.898Z,100664.25
2022-08-28T10:35:44.253Z,100670.66
2022-08-28T10:38:17.216Z,100655.03
2022-08-28T10:40:51.714Z,100653.41
2022-08-28T10:43:48.166Z,100653.09
2022-08-28T10:46:41.908Z,100656.13
2022-08-28T10:49:43.907Z,100651.09
2022-08-28T10:52:33.993Z,100651.13
2022-08-28T10:55:08.051Z,100655.53
2022-08-28T10:57:43.207Z,100656.25
2022-08-28T11:00:18.789Z,100649.72
2022-08-28T11:03:03.311Z,100651.34
2022-08-28T11:05:53.499Z,100651.22
2022-08-28T11:08:30.548Z,100652.28
2022-08-28T11:11:00.766Z,100652.66
2022-08-28T11:14:00.013Z,100649.94
2022-08-28T11:16:30.468Z,100644.47
2022-08-28T11:19:33.786Z,100642.50
2022-08-28T11:22:20.225Z,100645.66
2022-08-28T11:24:59.310Z,100644.81
2022-08-28T11:27:36.940Z,100649.16
2022-08-28T11:30:11.477Z,100642.28
2022-08-28T11:32:51.308Z,100638.41
2022-08-28T11:35:38.270Z,100644.94
2022-08-28T11:38:06.527Z,100636.22
2022-08-28T11:40:55.951Z,100642.78
2022-08-28T11:43:24.017Z,100636.38
2022-08-28T11:45:55.335Z,100642.34
2022-08-28T11:48:23.401Z,100628.81
2022-08-28T11:51:04.933Z,100642.63
2022-08-28T11:53:54.850Z,100628.53
2022-08-28T11:56:47.816Z,100634.44
2022-08-28T11:59:25.511Z,100629.53
2022-08-28T12:02:39.433Z,100627.34
2022-08-28T12:05:15.069Z,100621.78
2022-08-28T12:07:45.531Z,100622.53
2022-08-28T12:10:23.071Z,100607.84
2022-08-28T12:13:08.674Z,100609.91
2022-08-28T12:15:39.296Z,100604.81
2022-08-28T12:18:14.548Z,100603.41
2022-08-28T12:20:51.451Z,100602.25
2022-08-28T12:23:31.965Z,100611.06
2022-08-28T12:26:07.794Z,100600.47
2022-08-28T12:28:44.942Z,100602.72
2022-08-28T12:31:44.798Z,100600.19
2022-08-28T12:34:45.934Z,100597.25
2022-08-28T12:37:39.515Z,100595.75
2022-08-28T12:40:22.017Z,100583.88
2022-08-28T12:43:15.194Z,100592.97
2022-08-28T12:45:53.094Z,100597.84
2022-08-28T12:48:34.133Z,100595.34
2022-08-28T12:51:26.286Z,100590.50
2022-08-28T12:53:58.309Z,100582.00
2022-08-28T12:56:30.415Z,100576.47
2022-08-28T12:59:27.588Z,100579.06
2022-08-28T13:02:06.934Z,100578.94
2022-08-28T13:04:52.221Z,100584.63
2022-08-28T13:07:30.341Z,100576.63
2022-08-28T13:10:18.883Z,100574.91
2022-08-28T13:13:05.858Z,100571.09
2022-08-28T13:15:49.279Z,100572.56
2022-08-28T13:18:43.644Z,100564.41
2022-08-28T13:21:17.618Z,100564.50
2022-08-28T13:24:02.496Z,100562.75
2022-08-28T13:26:34.226Z,100545.25
2022-08-28T13:29:08.019Z,100552.13
2022-08-28T13:31:43.225Z,100555.53
2022-08-28T13:34:27.102Z,100552.19
2022-08-28T13:37:14.714Z,100552.66
2022-08-28T13:39:48.193Z,100549.34
2022-08-28T13:42:18.322Z,100536.69
2022-08-28T13:44:56.970Z,100544.25
2022-08-28T13:47:25.656Z,100536.13
2022-08-28T13:49:58.426Z,100528.56
2022-08-28T13:52:42.822Z,100533.94
2022-08-28T13:55:36.470Z,100533.19
2022-08-28T13:58:28.829Z,100535.91
2022-08-28T14:01:09.304Z,100531.03
2022-08-28T14:03:44.602Z,100533.16
2022-08-28T14:06:20.814Z,100529.00
2022-08-28T14:09:28.139Z,100525.22
2022-08-28T14:12:02.817Z,100523.69
2022-08-28T14:14:35.639Z,100530.41
2022-08-28T14:17:28.860Z,100532.66
2022-08-28T14:20:06.555Z,100532.88
2022-08-28T14:22:36.398Z,100540.28
2022-08-28T14:25:07.744Z,100536.53
2022-08-28T14:27:36.524Z,100547.75
2022-08-28T14:30:09.968Z,100542.84
2022-08-28T14:32:40.360Z,100532.88
2022-08-28T14:35:09.121Z,100544.16
2022-08-28T14:37:36.831Z,100539.16
2022-08-28T14:40:06.105Z,100548.44
2022-08-28T14:42:34.148Z,100549.94
2022-08-28T14:45:01.993Z,100551.41
2022-08-28T14:47:30.357Z,100553.97
2022-08-28T14:49:58.683Z,100558.44
2022-08-28T14:52:26.788Z,100562.56
2022-08-28T14:54:54.756Z,100566.22
2022-08-28T14:57:22.586Z,100561.72
2022-08-28T14:59:50.610Z,100571.50
2022-08-28T15:02:19.179Z,100566.03
2022-08-28T15:04:47.044Z,100572.56
2022-08-28T15:07:15.618Z,100563.75
2022-08-28T15:09:44.092Z,100572.75
2022-08-28T15:12:12.038Z,100582.72
2022-08-28T15:14:40.564Z,100580.13
2022-08-28T15:17:23.856Z,100573.75
2022-08-28T15:20:02.754Z,100576.72
2022-08-28T15:22:31.255Z,100580.81
2022-08-28T15:24:59.138Z,100582.44
2022-08-28T15:27:26.874Z,100578.34
2022-08-28T15:29:55.555Z,100589.34
2022-08-28T15:32:23.818Z,100594.06
2022-08-28T15:34:52.696Z,100588.69
2022-08-28T15:37:20.411Z,100585.19
2022-08-28T15:40:07.525Z,100582.59
2022-08-28T15:42:35.474Z,100580.31
2022-08-28T15:45:03.134Z,100578.03
2022-08-28T15:47:31.079Z,100575.75
2022-08-28T15:49:59.282Z,100577.19
2022-08-28T15:52:26.805Z,100575.56
2022-08-28T15:54:57.063Z,100585.19
2022-08-28T15:57:24.901Z,100585.19
2022-08-28T15:59:52.889Z,100585.09
2022-08-28T16:02:23.016Z,100587.38
2022-08-28T16:04:51.869Z,100589.81
2022-08-28T16:07:21.449Z,100590.78
2022-08-28T16:09:49.491Z,100595.00
2022-08-28T16:12:17.912Z,100592.13
2022-08-28T16:14:45.571Z,100602.09
2022-08-28T16:17:13.383Z,100603.81
2022-08-28T16:19:42.741Z,100613.09
2022-08-28T16:22:12.273Z,100633.28
2022-08-28T16:24:40.014Z,100632.66
2022-08-28T16:27:10.748Z,100641.31
2022-08-28T16:29:42.928Z,100635.66
2022-08-28T16:32:11.648Z,100639.31
2022-08-28T16:34:40.132Z,100643.25
2022-08-28T16:37:09.431Z,100646.75
2022-08-28T16:39:37.354Z,100646.97
2022-08-28T16:42:05.375Z,100654.84
2022-08-28T16:44:33.656Z,100669.72
2022-08-28T16:47:01.349Z,100667.38
2022-08-28T16:49:30.880Z,100675.53
2022-08-28T16:51:59.013Z,100675.59
2022-08-28T16:54:26.831Z,100685.13
2022-08-28T16:56:54.391Z,100677.97
2022-08-28T16:59:23.377Z,100676.31
2022-08-28T17:01:53.079Z,100696.97
2022-08-28T17:04:22.226Z,100693.69
2022-08-28T17:06:51.131Z,100688.09
2022-08-28T17:09:19.883Z,100697.53
2022-08-28T17:11:51.578Z,100690.63
2022-08-28T17:14:23.311Z,100694.69
2022-08-28T17:16:51.851Z,100703.22
2022-08-28T17:19:21.183Z,100691.78
2022-08-28T17:22:07.331Z,100704.50
2022-08-28T17:24:36.114Z,100701.06
2022-08-28T17:27:05.831Z,100696.34
2022-08-28T17:29:37.667Z,100699.75
2022-08-28T17:32:08.469Z,100697.66
2022-08-28T17:34:38.009Z,100701.69
2022-08-28T17:37:05.925Z,100703.13
2022-08-28T17:39:33.455Z,100701.84
2022-08-28T17:42:00.986Z,100700.66
2022-08-28T17:44:28.661Z,100696.78
2022-08-28T17:46:56.386Z,100701.25
2022-08-28T17:49:24.147Z,100696.53
2022-08-28T17:51:51.729Z,100696.97
2022-08-28T17:54:22.069Z,100702.22
2022-08-28T17:56:52.676Z,100711.13
2022-08-28T17:59:22.473Z,100709.38
2022-08-28T18:01:52.566Z,100716.91
2022-08-28T18:04:25.075Z,100720.84
2022-08-28T18:06:54.608Z,100724.38
2022-08-28T18:09:23.935Z,100733.22
2022-08-28T18:11:52.715Z,100733.84
2022-08-28T18:14:21.331Z,100736.06
2022-08-28T18:16:49.188Z,100738.38
2022-08-28T18:19:17.129Z,100735.91
2022-08-28T18:21:45.802Z,100740.19
2022-08-28T18:24:14.656Z,100741.31
2022-08-28T18:26:50.071Z,100750.91
2022-08-28T18:29:18.069Z,100759.44
2022-08-28T18:31:46.706Z,100756.34
2022-08-28T18:34:14.678Z,100757.69
2022-08-28T18:36:42.814Z,100752.44
2022-08-28T18:39:10.847Z,100755.16
2022-08-28T18:41:44.402Z,100753.41
2022-08-28T18:44:14.319Z,100761.72
2022-08-28T18:46:44.173Z,100763.38
2022-08-28T18:49:12.294Z,100769.94
2022-08-28T18:51:42.429Z,100781.03
2022-08-28T18:54:13.276Z,100781.56
2022-08-28T18:56:42.403Z,100777.09
2022-08-28T18:59:10.774Z,100782.06
2022-08-28T19:01:38.914Z,100780.16
2022-08-28T19:04:07.319Z,100784.88
2022-08-28T19:06:36.262Z,100782.47
2022-08-28T19:09:05.718Z,100783.84
2022-08-28T19:11:36.416Z,100782.19
2022-08-28T19:14:04.949Z,100792.75
2022-08-28T19:16:39.551Z,100786.16
2022-08-28T19:19:07.209Z,100787.25
2022-08-28T19:21:38.200Z,100789.47
2022-08-28T19:24:05.996Z,100784.22
2022-08-28T19:26:33.931Z,100785.34
2022-08-28T19:29:03.207Z,100789.47
2022-08-28T19:31:33.288Z,100792.78
2022-08-28T19:34:00.970Z,100797.72
2022-08-28T19:36:30.474Z,100802.13
2022-08-28T19:38:58.758Z,100805.44
2022-08-28T19:41:26.644Z,100800.47
2022-08-28T19:43:54.491Z,100799.09
2022-08-28T19:46:22.198Z,100798.81
2022-08-28T19:48:51.166Z,100799.09
2022-08-28T19:51:23.404Z,100796.63
2022-08-28T19:53:58.724Z,100801.59
2022-08-28T19:56:28.672Z,100799.44
2022-08-28T19:58:59.440Z,100796.13
2022-08-28T20:01:30.158Z,100796.09
2022-08-28T20:03:59.623Z,100805.47
2022-08-28T20:06:28.538Z,100803.56
2022-08-28T20:08:56.205Z,100802.19
2022-08-28T20:11:30.127Z,100805.16
2022-08-28T20:14:04.583Z,100803.25
2022-08-28T20:16:39.692Z,100812.03
2022-08-28T20:19:10.500Z,100808.19
2022-08-28T20:21:41.297Z,100813.19
2022-08-28T20:24:13.067Z,100813.97
2022-08-28T20:26:41.919Z,100810.38
2022-08-28T20:29:10.766Z,100810.38
2022-08-28T20:31:40.618Z,100812.56
2022-08-28T20:34:11.771Z,100807.63
2022-08-28T20:36:39.884Z,100812.84
2022-08-28T20:39:09.593Z,100814.78
2022-08-28T20:41:39.728Z,100817.81
2022-08-28T20:44:10.273Z,100823.56
2022-08-28T20:46:41.192Z,100819.13
2022-08-28T20:49:14.087Z,100824.88
2022-08-28T20:52:01.910Z,100830.66
2022-08-28T20:54:37.433Z,100824.59
2022-08-28T20:57:10.774Z,100824.69
2022-08-28T20:59:41.595Z,100831.25
2022-08-28T21:02:12.893Z,100827.63
2022-08-28T21:04:44.345Z,100830.97
2022-08-28T21:07:15.964Z,100831.00
2022-08-28T21:10:05.610Z,100834.03
2022-08-28T21:12:39.188Z,100836.75
2022-08-28T21:15:09.717Z,100840.31
2022-08-28T21:17:41.043Z,100839.47
2022-08-28T21:20:12.851Z,100841.06
2022-08-28T21:22:42.867Z,100844.69
2022-08-28T21:25:11.907Z,100849.97
2022-08-28T21:27:44.858Z,100850.78
2022-08-28T21:30:15.249Z,100852.75
2022-08-28T21:32:42.812Z,100859.31
2022-08-28T21:35:13.147Z,100844.75
2022-08-28T21:37:41.877Z,100858.22
2022-08-28T21:40:13.833Z,100852.91
2022-08-28T21:42:42.292Z,100855.34
2022-08-28T21:45:12.269Z,100861.56
2022-08-28T21:47:41.357Z,100867.38
2022-08-28T21:50:10.906Z,100869.16
2022-08-28T21:52:40.244Z,100878.31
2022-08-28T21:55:12.262Z,100878.34
2022-08-28T21:57:40.417Z,100867.84
2022-08-28T22:00:20.020Z,100875.94
2022-08-28T22:02:48.579Z,100881.44
2022-08-28T22:05:17.559Z,100879.09
2022-08-28T22:07:48.373Z,100877.03
2022-08-28T22:10:16.421Z,100873.47
2022-08-28T22:12:43.971Z,100882.50
2022-08-28T22:15:12.938Z,100872.97
2022-08-28T22:17:40.603Z,100875.28
2022-08-28T22:20:08.943Z,100879.09
2022-08-28T22:22:55.604Z,100877.75
2022-08-28T22:25:23.327Z,100872.97
2022-08-28T22:27:53.483Z,100883.81
2022-08-28T22:30:21.600Z,100881.59
2022-08-28T22:32:49.421Z,100886.19
2022-08-28T22:35:17.469Z,100889.91
2022-08-28T22:37:45.231Z,100892.00
2022-08-28T22:40:13.786Z,100896.16
2022-08-28T22:42:41.988Z,100891.19
2022-08-28T22:45:10.420Z,100896.22
2022-08-28T22:47:39.797Z,100903.25
2022-08-28T22:50:07.771Z,100900.78
2022-08-28T22:52:37.052Z,100903.97
2022-08-28T22:55:08.751Z,100895.09
2022-08-28T22:57:37.750Z,100897.25
2022-08-28T23:00:09.515Z,100901.41
2022-08-28T23:02:38.294Z,100905.31
2022-08-28T23:05:06.263Z,100902.75
2022-08-28T23:07:35.079Z,100914.72
2022-08-28T23:10:02.845Z,100905.19
2022-08-28T23:12:30.518Z,100909.44
2022-08-28T23:14:58.013Z,100912.75
2022-08-28T23:17:25.604Z,100907.28
2022-08-28T23:19:53.577Z,100913.66
2022-08-28T23:22:21.123Z,100912.50
2022-08-28T23:24:48.951Z,100923.91
2022-08-28T23:27:35.842Z,100925.50
2022-08-28T23:30:06.119Z,100925.13
2022-08-28T23:32:34.282Z,100928.31
2022-08-28T23:39:30.081Z,100923.63
2022-08-28T23:41:57.885Z,100924.53
2022-08-28T23:44:25.577Z,100926.84
2022-08-28T23:46:54.116Z,100930.41
2022-08-28T23:49:26.729Z,100930.41
2022-08-28T23:51:54.551Z,100930.28
2022-08-28T23:54:22.443Z,100928.53
2022-08-28T23:56:50.406Z,100933.00
2022-08-28T23:59:21.311Z,100942.81
